Sodville, Texas
Current Conditions -  °F | °C
As of 5:51 AM on Sunday 25 Jan 2015 (Local Time) from KCRP Reporting Station
Broken Clouds Broken Clouds  
Wind Chill: 38°   Ceiling: 20000
Heat Index: 41°   Visibility: 10mi
Dew Point: 38°   Wind: 5mph
Humidity: 89%   Direction: 200°SSW
Pressure: 30.1"   Gusts: NA
Location:  28.0577°N, 97.5365°W
Report Text: KCRP 251151Z 20004KT 10SM BKN200 05/03 A3010 RMK AO2 SLP191 T00500033 10072 20050 55006 $
Loading
Personal Weather Stations






























Interactive Weather Map New forecast layout! Learn more

10-Day Weather Forecast

Advertisements
Track Severe Weather on mobile